Time;durP1;ratioP1;P1;durP2;ratioP2;P2;SDS_P1;SDS_P2;PMS_P1;PMS_P2;Temp;Humidity;BMP_temperature;BMP_pressure;BME280_temperature;BME280_humidity;BME280_pressure;Samples;Min_cycle;Max_cycle;Signal;HPM_P1;HPM_P2
2022/08/07 00:00:50;;;;;;;5.03;4.18;;;;;;;13.02;78.84;102606.50;5072210;28;20538;-73
2022/08/07 00:03:15;;;;;;;6.40;4.22;;;;;;;12.97;79.30;102603.25;5072346;28;20036;-82
2022/08/07 00:05:40;;;;;;;6.82;4.50;;;;;;;12.95;79.58;102606.00;5072174;28;20500;-73
2022/08/07 00:08:06;;;;;;;4.63;4.20;;;;;;;12.93;79.67;102599.94;5070391;28;20109;-82
2022/08/07 00:10:31;;;;;;;5.30;4.63;;;;;;;12.88;79.71;102598.50;5073337;28;20024;-72
2022/08/07 00:12:59;;;;;;;4.82;4.30;;;;;;;12.86;79.80;102598.59;5069896;28;20029;-82
2022/08/07 00:15:24;;;;;;;7.57;4.40;;;;;;;12.80;80.18;102596.25;5073442;28;20036;-82
2022/08/07 00:17:50;;;;;;;8.23;4.72;;;;;;;12.78;80.42;102593.69;5072138;28;20028;-72
2022/08/07 00:20:16;;;;;;;5.20;4.47;;;;;;;12.81;79.44;102595.34;5071776;28;20176;-82
2022/08/07 00:22:41;;;;;;;5.38;4.35;;;;;;;12.79;79.72;102587.47;5072102;28;20082;-73
2022/08/07 00:25:07;;;;;;;6.15;4.90;;;;;;;12.70;80.82;102589.78;5070274;28;20059;-72
2022/08/07 00:27:34;;;;;;;6.70;4.50;;;;;;;12.81;80.23;102576.84;5071491;28;20051;-72
2022/08/07 00:29:59;;;;;;;6.05;4.40;;;;;;;12.67;80.50;102579.38;5070622;28;20027;-82
2022/08/07 00:32:25;;;;;;;6.32;4.95;;;;;;;12.62;80.37;102579.66;5070369;28;20025;-82
2022/08/07 00:34:50;;;;;;;7.40;4.82;;;;;;;12.61;80.83;102579.72;5070148;28;20363;-82
2022/08/07 00:37:16;;;;;;;5.65;4.50;;;;;;;12.54;81.07;102577.44;5070587;28;20256;-82
2022/08/07 00:39:42;;;;;;;8.40;4.57;;;;;;;12.52;81.29;102566.09;5065098;28;20414;-82
2022/08/07 00:42:08;;;;;;;7.85;4.88;;;;;;;12.58;80.91;102572.81;5050357;28;20028;-82
2022/08/07 00:44:34;;;;;;;9.73;5.55;;;;;;;12.46;81.82;102566.44;5050988;28;20059;-82
2022/08/07 00:47:01;;;;;;;7.10;5.47;;;;;;;12.46;81.84;102573.50;5049658;28;20025;-82
2022/08/07 00:49:27;;;;;;;7.22;5.18;;;;;;;12.52;81.44;102568.75;5050833;28;20029;-82
2022/08/07 00:51:52;;;;;;;6.57;5.00;;;;;;;12.50;81.48;102562.69;5050529;28;20029;-82
2022/08/07 00:54:18;;;;;;;7.10;4.93;;;;;;;12.41;81.79;102568.47;5049983;28;20036;-81
2022/08/07 00:56:43;;;;;;;11.32;5.43;;;;;;;12.38;81.86;102568.63;5083386;28;20060;-81
2022/08/07 00:59:09;;;;;;;5.55;4.93;;;;;;;12.38;82.09;102565.13;5049040;28;20025;-81
2022/08/07 01:01:34;;;;;;;6.50;5.50;;;;;;;12.27;82.09;102560.44;5065449;28;20070;-83
2022/08/07 01:04:04;;;;;;;7.88;5.97;;;;;;;12.27;82.39;102557.78;5050343;28;20108;-83
2022/08/07 01:06:29;;;;;;;11.13;5.82;;;;;;;12.22;82.63;102554.53;5051013;28;20074;-84
2022/08/07 01:08:56;;;;;;;5.90;5.30;;;;;;;12.30;82.77;102548.84;5062980;28;20107;-81
2022/08/07 01:11:22;;;;;;;6.35;5.50;;;;;;;12.24;83.09;102553.53;5069473;28;20025;-82
2022/08/07 01:13:48;;;;;;;7.03;5.70;;;;;;;12.18;83.22;102550.38;5071564;28;20058;-81
2022/08/07 01:16:14;;;;;;;6.35;5.75;;;;;;;12.22;82.98;102552.75;5069828;28;20021;-81
2022/08/07 01:18:39;;;;;;;6.20;5.70;;;;;;;12.12;83.51;102550.69;5070813;28;20024;-81
2022/08/07 01:21:16;;;;;;;7.88;5.90;;;;;;;12.12;83.77;102550.69;5069199;28;20017;-81
2022/08/07 01:23:43;;;;;;;7.93;6.10;;;;;;;12.11;83.18;102554.28;5068470;28;20035;-81
2022/08/07 01:26:12;;;;;;;9.57;5.75;;;;;;;12.04;83.97;102550.25;5070367;28;20032;-72
2022/08/07 01:28:41;;;;;;;7.57;6.03;;;;;;;12.01;84.22;102539.84;5069606;28;20036;-72
2022/08/07 01:31:07;;;;;;;9.98;6.55;;;;;;;11.97;84.40;102540.94;5068542;28;20028;-81
2022/08/07 01:33:33;;;;;;;7.22;6.47;;;;;;;11.95;84.88;102540.16;5070268;28;20048;-81
2022/08/07 01:36:00;;;;;;;8.80;6.90;;;;;;;11.96;85.25;102539.22;5069105;28;20025;-81
2022/08/07 01:38:26;;;;;;;8.23;6.85;;;;;;;11.95;85.23;102542.81;5068626;28;20134;-81
2022/08/07 01:40:57;;;;;;;6.95;6.35;;;;;;;11.92;85.19;102533.28;5068021;28;20131;-81
2022/08/07 01:43:24;;;;;;;7.65;6.78;;;;;;;11.89;84.73;102533.44;5069591;28;20020;-82
2022/08/07 01:45:50;;;;;;;8.13;6.50;;;;;;;11.89;85.11;102529.00;5070192;28;20157;-72
2022/08/07 01:48:16;;;;;;;7.90;6.82;;;;;;;11.83;85.17;102533.75;5069578;28;20028;-72
2022/08/07 01:50:46;;;;;;;7.85;7.05;;;;;;;11.78;85.51;102533.16;5068230;28;20035;-72
2022/08/07 01:53:13;;;;;;;8.40;6.90;;;;;;;11.78;85.39;102533.16;5069352;28;20029;-81
2022/08/07 01:55:44;;;;;;;8.10;7.25;;;;;;;11.81;85.80;102535.63;5070097;28;20520;-81
2022/08/07 01:58:12;;;;;;;8.27;7.28;;;;;;;11.71;86.06;102527.31;5069216;28;20115;-83
2022/08/07 02:00:40;;;;;;;10.13;6.68;;;;;;;11.77;85.49;102529.63;5070667;28;20033;-82
2022/08/07 02:03:12;;;;;;;8.07;7.28;;;;;;;11.74;85.88;102528.94;5069670;28;20095;-72
2022/08/07 02:05:43;;;;;;;9.20;7.38;;;;;;;11.70;85.49;102525.59;5069917;28;20029;-83
2022/08/07 02:08:11;;;;;;;10.73;7.32;;;;;;;11.68;85.86;102529.25;5069380;28;20029;-81
2022/08/07 02:10:39;;;;;;;8.80;7.60;;;;;;;11.69;85.74;102526.53;5069446;28;20032;-82
2022/08/07 02:13:05;;;;;;;8.52;7.20;;;;;;;11.63;86.19;102528.66;5069331;28;20424;-82
2022/08/07 02:15:33;;;;;;;8.88;7.07;;;;;;;11.66;85.89;102526.69;5070402;28;20047;-82
2022/08/07 02:18:01;;;;;;;8.20;6.97;;;;;;;11.65;86.03;102521.50;5068644;28;20027;-83
2022/08/07 02:20:29;;;;;;;8.98;7.28;;;;;;;11.56;86.49;102525.44;5069349;28;20103;-81
2022/08/07 02:23:01;;;;;;;8.10;7.30;;;;;;;11.55;86.67;102523.75;5069368;28;20048;-81
2022/08/07 02:25:29;;;;;;;7.72;6.95;;;;;;;11.53;86.90;102515.06;5068682;28;20489;-81
2022/08/07 02:27:57;;;;;;;8.43;7.50;;;;;;;11.49;86.72;102521.41;5069734;28;20016;-81
2022/08/07 02:30:24;;;;;;;10.05;7.70;;;;;;;11.49;86.75;102516.16;5071647;28;20385;-73
2022/08/07 02:32:51;;;;;;;9.07;7.35;;;;;;;11.53;86.29;102509.78;5072726;28;20055;-81
2022/08/07 02:35:18;;;;;;;10.73;7.60;;;;;;;11.50;86.28;102520.50;5074177;28;20036;-72
2022/08/07 02:37:45;;;;;;;9.90;7.13;;;;;;;11.51;85.67;102515.13;5073241;28;20134;-81
2022/08/07 02:40:11;;;;;;;8.98;7.15;;;;;;;11.50;86.69;102520.50;5064170;28;20699;-81
2022/08/07 02:42:38;;;;;;;8.18;7.07;;;;;;;11.48;86.21;102511.81;5053604;28;20032;-81
2022/08/07 02:45:07;;;;;;;8.20;7.28;;;;;;;11.46;87.02;102513.66;5053393;28;20029;-72
2022/08/07 02:47:33;;;;;;;10.55;7.07;;;;;;;11.42;86.87;102520.03;5053066;28;20056;-72
2022/08/07 02:49:58;;;;;;;10.63;7.50;;;;;;;11.41;86.96;102515.69;5051690;28;20048;-80
2022/08/07 02:52:55;;;;;;;8.45;7.55;;;;;;;11.48;86.08;102506.53;5053437;28;20530;-81
2022/08/07 02:55:23;;;;;;;13.40;7.82;;;;;;;11.38;87.02;102510.56;5048671;28;20182;-81
2022/08/07 02:57:51;;;;;;;8.77;7.88;;;;;;;11.33;87.28;102505.53;5052849;28;20021;-81
2022/08/07 03:00:17;;;;;;;12.68;8.35;;;;;;;11.33;87.26;102502.06;5052717;28;20043;-81
2022/08/07 03:02:46;;;;;;;8.25;7.45;;;;;;;11.38;86.98;102510.56;5052840;28;20029;-81
2022/08/07 03:05:13;;;;;;;10.63;7.78;;;;;;;11.36;87.21;102507.16;5051537;28;20456;-74
2022/08/07 03:07:40;;;;;;;9.38;7.68;;;;;;;11.28;87.76;102505.78;5053456;28;20032;-74
2022/08/07 03:10:07;;;;;;;10.23;7.75;;;;;;;11.28;87.38;102510.19;5072761;28;20085;-74
2022/08/07 03:12:34;;;;;;;8.93;8.05;;;;;;;11.22;87.69;102506.09;5073349;28;20031;-83
2022/08/07 03:15:00;;;;;;;9.02;7.93;;;;;;;11.22;87.72;102499.97;5072360;28;20032;-81
2022/08/07 03:17:26;;;;;;;8.77;7.90;;;;;;;11.16;87.10;102495.84;5075108;28;20089;-82
2022/08/07 03:19:52;;;;;;;8.63;7.68;;;;;;;11.09;87.64;102504.97;5072783;28;20032;-82
2022/08/07 03:22:20;;;;;;;8.95;8.13;;;;;;;11.04;87.98;102501.72;5071929;28;20019;-82
2022/08/07 03:24:46;;;;;;;9.82;7.88;;;;;;;11.08;87.68;102508.53;5073225;28;20473;-84
2022/08/07 03:27:13;;;;;;;11.23;8.70;;;;;;;11.14;87.41;102496.84;5072068;28;20643;-82
2022/08/07 03:29:43;;;;;;;10.02;8.63;;;;;;;11.02;88.03;102503.56;5071960;28;20055;-83
2022/08/07 03:32:11;;;;;;;9.13;7.57;;;;;;;11.09;87.84;102504.97;5070597;28;20032;-72
2022/08/07 03:34:38;;;;;;;10.55;8.35;;;;;;;11.02;88.54;102498.31;5072503;28;20032;-84
2022/08/07 03:37:04;;;;;;;9.20;8.30;;;;;;;11.02;89.09;102497.47;5071269;28;20025;-84
2022/08/07 03:39:33;;;;;;;9.27;8.38;;;;;;;11.01;88.63;102501.03;5072657;28;20398;-83
2022/08/07 03:41:59;;;;;;;10.73;8.63;;;;;;;10.97;88.54;102500.31;5072256;28;20028;-84
2022/08/07 03:44:25;;;;;;;11.48;8.05;;;;;;;10.92;88.64;102497.06;5072048;28;20471;-81
2022/08/07 03:46:51;;;;;;;11.27;8.02;;;;;;;10.96;88.83;102499.47;5073061;28;20031;-82
2022/08/07 03:49:17;;;;;;;9.98;8.20;;;;;;;10.94;88.63;102501.31;5070276;28;20036;-82
2022/08/07 03:51:42;;;;;;;9.32;7.90;;;;;;;10.91;88.43;102496.22;5072304;28;20082;-81
2022/08/07 03:54:08;;;;;;;10.20;8.30;;;;;;;10.88;88.83;102506.03;5070248;28;20106;-82
2022/08/07 03:56:37;;;;;;;11.73;8.43;;;;;;;10.85;88.59;102516.72;5071567;28;20070;-82
2022/08/07 03:59:05;;;;;;;9.20;8.40;;;;;;;10.86;88.57;102516.66;5072303;28;20004;-82
2022/08/07 04:01:32;;;;;;;10.27;8.50;;;;;;;10.82;88.62;102508.97;5071319;28;20032;-82
2022/08/07 04:03:58;;;;;;;10.95;8.20;;;;;;;10.82;88.89;102519.50;5071817;28;20085;-82
2022/08/07 04:06:24;;;;;;;8.63;7.80;;;;;;;10.89;88.32;102526.19;5072273;28;20028;-82
2022/08/07 04:08:51;;;;;;;9.00;7.70;;;;;;;10.88;88.69;102524.47;5071944;28;20073;-83
2022/08/07 04:11:17;;;;;;;10.75;8.15;;;;;;;10.81;88.77;102521.28;5071346;28;20036;-83
2022/08/07 04:13:45;;;;;;;11.50;8.50;;;;;;;10.82;89.42;102522.16;5071881;28;20043;-73
2022/08/07 04:16:11;;;;;;;10.45;8.70;;;;;;;10.83;89.25;102523.84;5071214;28;20028;-82
2022/08/07 04:18:37;;;;;;;13.07;8.20;;;;;;;10.83;88.32;102522.06;5071199;28;20031;-82
2022/08/07 04:21:02;;;;;;;11.27;8.20;;;;;;;10.83;89.18;102529.13;5069294;28;20021;-82
2022/08/07 04:23:29;;;;;;;9.80;7.90;;;;;;;10.84;89.15;102523.78;5071572;28;20082;-82
2022/08/07 04:25:55;;;;;;;16.75;8.68;;;;;;;10.88;88.75;102525.34;5070542;28;20035;-82
2022/08/07 04:28:20;;;;;;;9.52;8.63;;;;;;;10.78;89.25;102517.94;5071263;28;20024;-82
2022/08/07 04:30:47;;;;;;;10.02;8.73;;;;;;;10.80;89.17;102522.19;5071355;28;20027;-82
2022/08/07 04:33:14;;;;;;;9.20;8.20;;;;;;;10.79;89.06;102527.53;5070455;28;20048;-82
2022/08/07 04:35:39;;;;;;;9.52;8.65;;;;;;;10.79;89.17;102538.91;5071428;28;20028;-73
2022/08/07 04:38:06;;;;;;;11.40;9.00;;;;;;;10.81;89.90;102534.47;5069461;28;20035;-81
2022/08/07 04:40:32;;;;;;;12.65;9.20;;;;;;;10.85;89.84;102525.47;5070568;28;20049;-81
2022/08/07 04:42:58;;;;;;;12.50;8.77;;;;;;;10.83;90.05;102529.13;5069689;28;20029;-82
2022/08/07 04:45:33;;;;;;;9.25;8.07;;;;;;;10.83;89.91;102531.75;5070969;28;20029;-82
2022/08/07 04:48:09;;;;;;;10.63;8.80;;;;;;;10.86;90.16;102532.44;5070357;28;20488;-82
2022/08/07 04:50:59;;;;;;;10.10;9.10;;;;;;;10.86;89.59;102529.81;5070597;28;20087;-82
2022/08/07 04:53:40;;;;;;;10.90;8.60;;;;;;;10.89;90.23;102534.09;5068856;28;20028;-72
2022/08/07 04:56:23;;;;;;;11.52;9.00;;;;;;;10.99;90.69;102530.91;5070280;28;20028;-73
2022/08/07 04:58:59;;;;;;;11.43;9.00;;;;;;;10.98;91.01;102528.38;5070781;28;20502;-72
2022/08/07 05:01:31;;;;;;;13.30;8.35;;;;;;;11.05;90.24;102531.53;5070895;28;20055;-83
2022/08/07 05:04:20;;;;;;;11.32;8.90;;;;;;;11.06;89.94;102528.84;5069516;28;20059;-83
2022/08/07 05:06:57;;;;;;;15.13;9.35;;;;;;;11.10;90.65;102535.66;5071321;28;20490;-82
2022/08/07 05:09:31;;;;;;;18.42;9.70;;;;;;;11.07;90.64;102538.44;5072390;28;20020;-82
2022/08/07 05:12:01;;;;;;;16.33;9.27;;;;;;;11.09;90.79;102541.84;5070167;28;20024;-82
2022/08/07 05:14:32;;;;;;;17.33;9.45;;;;;;;11.10;91.38;102534.81;5070097;28;20131;-83
2022/08/07 05:17:01;;;;;;;16.58;9.98;;;;;;;11.09;92.03;102539.22;5069960;28;20074;-83
2022/08/07 05:19:34;;;;;;;15.05;9.27;;;;;;;11.11;91.51;102540.00;5071002;28;20374;-82
2022/08/07 05:22:01;;;;;;;15.38;8.75;;;;;;;11.09;91.42;102547.13;5067950;28;20385;-82
2022/08/07 05:24:29;;;;;;;11.90;8.90;;;;;;;11.15;91.52;102544.19;5069365;28;20098;-83
2022/08/07 05:26:57;;;;;;;12.15;9.25;;;;;;;11.19;92.12;102551.00;5070842;28;20025;-83
2022/08/07 05:29:23;;;;;;;12.80;8.88;;;;;;;11.23;91.76;102549.97;5068646;28;20028;-82
2022/08/07 05:31:50;;;;;;;15.73;9.48;;;;;;;11.27;92.77;102551.50;5070618;28;20107;-83
2022/08/07 05:34:17;;;;;;;10.45;9.20;;;;;;;11.38;93.42;102547.47;5070750;28;20028;-82
2022/08/07 05:36:46;;;;;;;11.77;9.10;;;;;;;11.42;92.93;102552.50;5070210;28;20044;-83
2022/08/07 05:39:14;;;;;;;11.10;9.32;;;;;;;11.53;93.12;102558.09;5069488;28;20553;-82
2022/08/07 05:41:41;;;;;;;12.43;9.50;;;;;;;11.55;92.80;102560.66;5051199;28;20053;-82
2022/08/07 05:44:09;;;;;;;10.30;9.23;;;;;;;11.63;93.27;102563.78;5082555;28;20024;-82
2022/08/07 05:46:37;;;;;;;12.70;9.63;;;;;;;11.84;93.72;102559.19;5050848;28;20028;-82
2022/08/07 05:49:05;;;;;;;13.90;10.13;;;;;;;11.95;93.23;102559.47;5048817;28;20029;-82
2022/08/07 05:51:30;;;;;;;12.98;10.23;;;;;;;12.03;93.36;102554.69;5048839;28;20029;-82
2022/08/07 05:53:56;;;;;;;14.25;9.43;;;;;;;12.04;93.13;102547.63;5048692;28;20035;-82
2022/08/07 05:56:23;;;;;;;16.13;10.30;;;;;;;12.13;92.72;102552.41;5081795;28;20546;-82
2022/08/07 05:58:49;;;;;;;16.55;10.35;;;;;;;12.29;92.98;102557.69;5050273;28;20029;-82
2022/08/07 06:01:16;;;;;;;15.20;10.18;;;;;;;12.39;92.37;102558.91;5049079;28;20024;-82
2022/08/07 06:03:47;;;;;;;14.55;9.77;;;;;;;12.44;92.01;102562.19;5053643;28;20032;-73
2022/08/07 06:06:13;;;;;;;14.65;10.10;;;;;;;12.53;91.41;102557.25;5053606;28;20441;-72
2022/08/07 06:08:40;;;;;;;14.07;10.13;;;;;;;12.65;91.63;102568.91;5065124;28;20179;-73
2022/08/07 06:11:07;;;;;;;14.43;10.30;;;;;;;12.73;91.39;102563.19;5073879;28;20036;-82
2022/08/07 06:13:34;;;;;;;11.52;9.45;;;;;;;12.81;91.04;102566.28;5074147;28;20367;-82
2022/08/07 06:16:02;;;;;;;11.80;10.40;;;;;;;12.88;90.29;102567.66;5072121;28;20032;-82
2022/08/07 06:18:29;;;;;;;14.70;9.57;;;;;;;12.95;89.12;102562.88;5073449;28;20070;-82
2022/08/07 06:20:54;;;;;;;14.82;9.80;;;;;;;13.04;89.62;102557.91;5072097;28;20029;-82
2022/08/07 06:23:19;;;;;;;17.55;10.75;;;;;;;13.08;89.74;102569.16;5073711;28;20548;-82
2022/08/07 06:25:45;;;;;;;12.93;10.25;;;;;;;13.13;89.83;102567.09;5073308;28;20028;-82
2022/08/07 06:28:10;;;;;;;13.27;9.82;;;;;;;13.25;88.88;102561.16;5073333;28;20979;-81
2022/08/07 06:30:37;;;;;;;11.43;10.23;;;;;;;13.39;87.11;102552.41;5073633;28;20028;-84
2022/08/07 06:33:04;;;;;;;13.35;10.18;;;;;;;13.46;86.26;102559.03;5072698;28;20393;-84
2022/08/07 06:35:31;;;;;;;12.15;9.63;;;;;;;13.63;85.31;102552.78;5073737;28;20023;-84
2022/08/07 06:37:57;;;;;;;11.02;9.85;;;;;;;13.72;84.55;102555.72;5072330;28;20107;-84
2022/08/07 06:40:23;;;;;;;14.57;9.65;;;;;;;13.83;84.90;102562.16;5072253;28;20067;-84
2022/08/07 06:42:51;;;;;;;11.40;9.52;;;;;;;13.86;85.05;102554.03;5073820;28;20028;-84
2022/08/07 06:45:20;;;;;;;13.27;10.50;;;;;;;13.96;84.72;102563.94;5072893;28;20383;-82
2022/08/07 06:47:46;;;;;;;12.82;10.32;;;;;;;14.05;84.31;102558.13;5072270;28;20057;-84
2022/08/07 06:50:12;;;;;;;12.32;9.90;;;;;;;14.15;82.99;102547.81;5072655;28;20032;-82
2022/08/07 06:52:40;;;;;;;12.00;9.80;;;;;;;14.26;82.34;102547.97;5072777;28;20028;-82
2022/08/07 06:55:14;;;;;;;12.50;10.00;;;;;;;14.34;80.16;102552.78;5072905;28;20020;-82
2022/08/07 06:57:40;;;;;;;14.45;9.90;;;;;;;14.44;81.35;102539.88;5073311;28;20165;-82
2022/08/07 07:00:06;;;;;;;11.75;9.95;;;;;;;14.63;81.42;102540.41;5072244;28;20389;-82
2022/08/07 07:02:32;;;;;;;12.15;9.77;;;;;;;14.76;80.02;102532.50;5071934;28;20454;-82
2022/08/07 07:04:58;;;;;;;12.27;9.23;;;;;;;14.89;77.90;102534.28;5072425;28;20019;-82
2022/08/07 07:07:23;;;;;;;12.15;9.98;;;;;;;15.09;77.15;102534.75;5072515;28;20023;-82
2022/08/07 07:09:50;;;;;;;11.10;9.95;;;;;;;15.32;76.62;102540.25;5073262;28;20047;-75
2022/08/07 07:12:34;;;;;;;10.43;9.32;;;;;;;15.51;77.09;102541.66;5071788;28;20828;-84
2022/08/07 07:15:08;;;;;;;9.80;8.77;;;;;;;15.73;74.30;102541.09;5070932;28;20024;-84
2022/08/07 07:17:56;;;;;;;10.05;8.45;;;;;;;15.99;74.22;102550.72;5071714;28;20119;-82
2022/08/07 07:20:28;;;;;;;9.35;8.45;;;;;;;16.24;71.89;102548.06;5072330;28;20227;-82
2022/08/07 07:22:54;;;;;;;9.95;8.55;;;;;;;16.37;70.89;102547.19;5072481;28;20051;-83
2022/08/07 07:25:21;;;;;;;9.40;8.50;;;;;;;16.55;70.57;102545.88;5072801;28;20099;-73
2022/08/07 07:27:55;;;;;;;12.43;8.60;;;;;;;16.83;69.44;102548.28;5072063;28;20028;-73
2022/08/07 07:30:26;;;;;;;11.98;8.38;;;;;;;16.86;68.34;102541.88;5072931;28;20031;-84
2022/08/07 07:32:56;;;;;;;16.40;8.35;;;;;;;17.06;68.96;102545.72;5071082;28;20021;-82
2022/08/07 07:35:23;;;;;;;9.80;7.68;;;;;;;17.26;68.07;102536.28;5070989;28;20056;-73
2022/08/07 07:37:50;;;;;;;10.20;7.40;;;;;;;17.57;67.60;102522.31;5072670;28;20568;-83
2022/08/07 07:40:18;;;;;;;11.70;7.53;;;;;;;17.77;66.81;102526.97;5071075;28;20079;-83
2022/08/07 07:42:46;;;;;;;8.85;7.07;;;;;;;18.05;64.67;102524.84;5072256;28;20548;-82
2022/08/07 07:45:13;;;;;;;7.70;6.85;;;;;;;18.24;65.30;102513.56;5071958;28;20116;-82
2022/08/07 07:47:41;;;;;;;9.57;7.03;;;;;;;18.41;63.70;102515.69;5072111;28;20433;-83
2022/08/07 07:50:10;;;;;;;9.65;7.15;;;;;;;18.65;62.88;102516.44;5071196;28;20363;-82
2022/08/07 07:52:37;;;;;;;8.02;6.68;;;;;;;18.83;60.71;102515.91;5072152;28;20020;-82
2022/08/07 07:55:03;;;;;;;7.07;5.72;;;;;;;18.79;59.39;102516.13;5071759;28;20071;-82
2022/08/07 07:57:30;;;;;;;7.65;6.32;;;;;;;18.86;59.20;102511.16;5071388;28;20111;-82
2022/08/07 07:59:57;;;;;;;7.35;6.55;;;;;;;19.13;60.16;102508.00;5072150;28;20050;-82
2022/08/07 08:02:26;;;;;;;7.28;6.30;;;;;;;19.22;59.25;102504.59;5072021;28;20485;-82
2022/08/07 08:04:53;;;;;;;7.25;6.50;;;;;;;19.27;59.05;102510.38;5071975;28;20052;-82
2022/08/07 08:07:18;;;;;;;9.68;6.75;;;;;;;19.46;58.97;102514.16;5072263;28;20385;-73
2022/08/07 08:09:49;;;;;;;5.93;5.20;;;;;;;19.48;57.12;102512.19;5070255;28;20028;-82
2022/08/07 08:12:15;;;;;;;8.23;5.80;;;;;;;19.65;58.37;102506.31;5071824;28;20081;-82
2022/08/07 08:14:40;;;;;;;6.45;5.82;;;;;;;19.58;57.09;102508.63;5070841;28;20127;-73
2022/08/07 08:17:09;;;;;;;6.85;5.78;;;;;;;19.99;57.09;102513.06;5070870;28;20104;-82
2022/08/07 08:19:36;;;;;;;8.98;6.25;;;;;;;20.08;56.78;102513.25;5072374;28;20410;-82
2022/08/07 08:27:39;;;;;;;7.70;5.22;;;;;;;20.47;55.66;102514.25;5072120;28;20093;-82
2022/08/07 08:30:06;;;;;;;6.25;4.80;;;;;;;20.56;55.65;102508.94;5071222;28;20031;-82
2022/08/07 08:32:37;;;;;;;6.28;5.30;;;;;;;20.68;56.06;102514.16;5071259;28;20107;-82
2022/08/07 08:35:04;;;;;;;6.10;4.43;;;;;;;21.04;53.93;102516.16;5070836;28;20393;-73
2022/08/07 08:37:34;;;;;;;5.10;3.60;;;;;;;20.98;50.76;102521.22;5069891;28;20020;-82
2022/08/07 08:40:01;;;;;;;5.40;3.75;;;;;;;21.08;53.09;102517.56;5071507;28;20044;-82
2022/08/07 08:42:35;;;;;;;4.93;4.22;;;;;;;21.35;53.11;102505.31;5072165;28;20063;-82
2022/08/07 08:45:21;;;;;;;8.50;4.18;;;;;;;21.43;50.82;102510.78;5070748;28;20052;-82
2022/08/07 08:48:08;;;;;;;5.13;4.43;;;;;;;21.55;53.42;102498.91;5071947;28;20441;-82
2022/08/07 08:50:39;;;;;;;4.00;3.40;;;;;;;21.75;51.31;102507.75;5071907;28;20382;-82
2022/08/07 08:53:43;;;;;;;5.15;3.45;;;;;;;22.13;52.21;102504.13;5068619;28;20453;-82
2022/08/07 08:56:23;;;;;;;4.40;3.50;;;;;;;22.04;49.72;102505.00;5070656;28;20029;-82
2022/08/07 08:59:12;;;;;;;7.18;4.05;;;;;;;22.06;50.95;102511.91;5070566;28;20024;-82
2022/08/07 09:01:55;;;;;;;7.60;3.47;;;;;;;22.04;49.70;102505.00;5070971;28;20069;-82
2022/08/07 09:04:55;;;;;;;4.80;3.78;;;;;;;22.26;49.70;102504.59;5071652;28;20025;-82
2022/08/07 09:07:35;;;;;;;5.45;4.10;;;;;;;22.60;49.97;102501.28;5069921;28;20111;-82
2022/08/07 09:10:13;;;;;;;5.57;4.40;;;;;;;22.58;47.99;102495.25;5071790;28;20036;-84
2022/08/07 09:12:50;;;;;;;3.80;3.40;;;;;;;22.84;48.18;102496.22;5070119;28;20115;-84
2022/08/07 09:15:34;;;;;;;5.25;3.40;;;;;;;23.06;45.45;102493.03;5069192;28;20094;-83
2022/08/07 09:18:35;;;;;;;4.45;3.17;;;;;;;23.11;47.28;102496.09;5070052;28;20056;-83
2022/08/07 09:21:37;;;;;;;3.67;2.97;;;;;;;23.28;46.40;102490.88;5067698;28;20027;-83
2022/08/07 09:24:21;;;;;;;5.97;3.25;;;;;;;23.18;44.13;102495.47;5069994;28;20024;-83
2022/08/07 09:27:00;;;;;;;3.67;2.88;;;;;;;23.31;44.27;102490.56;5069961;28;20116;-83
2022/08/07 09:29:54;;;;;;;4.07;3.22;;;;;;;23.33;44.67;102489.41;5070868;28;20419;-84
2022/08/07 09:32:47;;;;;;;5.80;3.90;;;;;;;23.48;45.98;102481.59;5069173;28;20394;-75
2022/08/07 09:36:06;;;;;;;9.05;4.30;;;;;;;23.79;46.10;102478.47;5069837;28;20532;-84
2022/08/07 09:39:17;;;;;;;6.00;4.15;;;;;;;23.72;46.08;102481.78;4988443;28;20036;-75
2022/08/07 09:41:50;;;;;;;6.03;3.65;;;;;;;23.99;43.15;102479.88;5069957;28;20051;-84
2022/08/07 09:44:28;;;;;;;6.72;4.18;;;;;;;23.84;42.64;102478.81;5068885;28;20025;-75
2022/08/07 09:47:05;;;;;;;7.10;3.80;;;;;;;23.96;42.27;102481.06;5070354;28;20028;-72
2022/08/07 09:49:50;;;;;;;5.18;3.63;;;;;;;23.92;43.08;102473.47;5069864;28;20028;-84
2022/08/07 09:52:38;;;;;;;8.55;4.05;;;;;;;24.10;43.41;102476.94;5070015;28;20030;-81
2022/08/07 09:55:19;;;;;;;5.70;3.10;;;;;;;24.07;44.12;102466.50;5068964;28;20028;-84
2022/08/07 09:57:59;;;;;;;5.75;3.58;;;;;;;24.24;42.86;102462.00;5070338;28;20028;-82
2022/08/07 10:00:32;;;;;;;3.75;3.17;;;;;;;24.44;41.70;102462.59;5067776;28;20028;-82
2022/08/07 10:03:12;;;;;;;3.58;3.03;;;;;;;24.36;41.76;102461.56;5069156;28;20052;-73
2022/08/07 10:05:55;;;;;;;5.32;2.92;;;;;;;24.48;40.86;102453.19;5070264;28;20031;-82
2022/08/07 10:08:42;;;;;;;4.95;3.22;;;;;;;24.38;40.29;102450.63;5069843;28;20028;-82
2022/08/07 10:11:27;;;;;;;3.10;2.80;;;;;;;24.48;41.42;102453.19;5067822;28;20448;-73
2022/08/07 10:14:21;;;;;;;7.38;2.70;;;;;;;24.64;42.24;102443.28;5070072;28;20424;-84
2022/08/07 10:17:18;;;;;;;3.95;2.50;;;;;;;24.66;40.62;102445.78;5063476;28;20436;-83
2022/08/07 10:20:21;;;;;;;3.78;2.95;;;;;;;24.55;40.73;102443.44;5070303;28;20051;-83
2022/08/07 10:23:01;;;;;;;3.28;2.38;;;;;;;24.64;39.97;102437.88;5070762;28;20458;-82
2022/08/07 10:25:41;;;;;;;3.03;2.30;;;;;;;24.19;39.65;102435.59;5070377;28;20470;-84
2022/08/07 10:28:13;;;;;;;3.38;2.38;;;;;;;24.13;40.52;102438.94;5069441;28;20028;-83
2022/08/07 10:30:53;;;;;;;3.13;2.40;;;;;;;24.08;40.43;102438.59;5069290;28;20024;-83
2022/08/07 10:33:22;;;;;;;4.60;2.80;;;;;;;23.92;39.36;102438.50;5069789;28;20024;-83
2022/08/07 10:36:22;;;;;;;3.83;2.90;;;;;;;24.35;41.81;102440.19;5069579;28;20025;-82
2022/08/07 10:39:04;;;;;;;4.45;2.65;;;;;;;24.53;39.82;102430.16;5016685;28;21188;-81
2022/08/07 10:41:45;;;;;;;3.75;2.40;;;;;;;24.87;40.16;102431.84;5071170;28;20048;-73
2022/08/07 10:44:33;;;;;;;5.93;3.08;;;;;;;24.73;39.11;102425.25;5068950;28;20032;-82
2022/08/07 10:47:17;;;;;;;4.30;2.75;;;;;;;24.56;39.51;102420.91;5069649;28;20474;-73
2022/08/07 10:49:55;;;;;;;6.35;2.78;;;;;;;24.70;40.01;102425.59;5070035;28;20021;-73
2022/08/07 10:52:32;;;;;;;5.35;2.33;;;;;;;25.04;38.66;102411.16;5072384;28;20381;-73
2022/08/07 10:55:13;;;;;;;3.22;2.20;;;;;;;25.01;37.72;102422.28;5072663;28;20036;-72
2022/08/07 10:57:47;;;;;;;4.18;3.30;;;;;;;25.04;37.61;102411.16;5073254;28;20103;-73
2022/08/07 11:00:15;;;;;;;4.53;2.50;;;;;;;25.05;35.37;102410.13;5070778;28;20075;-73
2022/08/07 11:03:34;;;;;;;3.20;2.33;;;;;;;25.28;37.86;102411.97;5073307;28;20386;-73
2022/08/07 11:06:07;;;;;;;4.22;2.35;;;;;;;25.21;35.87;102402.00;5029808;28;20036;-82
2022/08/07 11:08:51;;;;;;;5.68;2.10;;;;;;;25.40;36.39;102398.94;5031629;28;20109;-82
2022/08/07 11:11:38;;;;;;;5.35;2.35;;;;;;;25.49;37.60;102392.50;5057715;28;20040;-73
2022/08/07 11:14:12;;;;;;;3.67;2.53;;;;;;;25.33;35.29;102383.66;5071869;28;20028;-82
2022/08/07 11:16:59;;;;;;;5.28;2.33;;;;;;;25.23;35.61;102386.56;5071797;28;20397;-82
2022/08/07 11:19:46;;;;;;;4.35;2.50;;;;;;;25.17;36.64;102379.97;5072240;28;20021;-82
2022/08/07 11:22:16;;;;;;;4.75;2.20;;;;;;;25.10;35.37;102384.38;5072356;28;20038;-82
2022/08/07 11:25:07;;;;;;;3.47;2.28;;;;;;;25.29;36.40;102377.78;5071490;28;20043;-82
2022/08/07 11:27:56;;;;;;;4.28;2.88;;;;;;;25.14;37.08;102368.69;5072240;28;20032;-82
2022/08/07 11:30:31;;;;;;;7.35;2.70;;;;;;;25.48;37.53;102373.81;5071401;28;20394;-82
2022/08/07 11:33:30;;;;;;;4.30;2.53;;;;;;;25.94;38.16;102372.13;5072069;28;20474;-82
2022/08/07 11:36:07;;;;;;;4.20;2.50;;;;;;;25.95;36.06;102365.69;5052044;28;20390;-81
2022/08/07 11:38:49;;;;;;;3.85;2.33;;;;;;;25.66;35.95;102369.06;5062164;28;20077;-81
2022/08/07 11:41:20;;;;;;;2.90;2.22;;;;;;;25.88;36.04;102367.44;5071419;28;20134;-82
2022/08/07 11:44:13;;;;;;;5.40;2.30;;;;;;;26.21;37.47;102358.13;5072489;28;20031;-82
2022/08/07 11:46:50;;;;;;;2.83;2.10;;;;;;;26.28;35.66;102360.09;5072456;28;20028;-82
2022/08/07 11:49:55;;;;;;;4.35;2.50;;;;;;;26.13;35.31;102354.66;5071444;28;20397;-84